sensor_id;sensor_type;location;lat;lon;timestamp;temperature;humidity
4223;DHT22;2125;51.436;14.138;2022-12-18T00:02:00;-2.40;88.50
4223;DHT22;2125;51.436;14.138;2022-12-18T00:04:27;-2.40;88.50
4223;DHT22;2125;51.436;14.138;2022-12-18T00:06:54;-2.30;88.50
4223;DHT22;2125;51.436;14.138;2022-12-18T00:09:21;-2.40;88.50
4223;DHT22;2125;51.436;14.138;2022-12-18T00:11:48;-2.40;88.50
4223;DHT22;2125;51.436;14.138;2022-12-18T00:14:15;-2.30;88.50
4223;DHT22;2125;51.436;14.138;2022-12-18T00:16:44;-2.40;88.50
4223;DHT22;2125;51.436;14.138;2022-12-18T00:19:12;-2.50;88.70
4223;DHT22;2125;51.436;14.138;2022-12-18T00:21:41;-2.80;88.50
4223;DHT22;2125;51.436;14.138;2022-12-18T00:24:10;-2.80;88.50
4223;DHT22;2125;51.436;14.138;2022-12-18T00:26:43;-2.70;88.60
4223;DHT22;2125;51.436;14.138;2022-12-18T00:29:12;-2.60;88.60
4223;DHT22;2125;51.436;14.138;2022-12-18T00:31:41;-2.50;88.60
4223;DHT22;2125;51.436;14.138;2022-12-18T00:34:10;-2.40;88.50
4223;DHT22;2125;51.436;14.138;2022-12-18T00:36:40;-2.40;88.60
4223;DHT22;2125;51.436;14.138;2022-12-18T00:39:08;-2.30;88.50
4223;DHT22;2125;51.436;14.138;2022-12-18T00:41:35;-2.30;88.50
4223;DHT22;2125;51.436;14.138;2022-12-18T00:44:20;-2.30;88.60
4223;DHT22;2125;51.436;14.138;2022-12-18T00:46:47;-2.30;88.50
4223;DHT22;2125;51.436;14.138;2022-12-18T00:49:16;-2.30;88.50
4223;DHT22;2125;51.436;14.138;2022-12-18T00:51:44;-2.30;88.50
4223;DHT22;2125;51.436;14.138;2022-12-18T00:54:11;-2.30;88.50
4223;DHT22;2125;51.436;14.138;2022-12-18T00:56:38;-2.40;88.50
4223;DHT22;2125;51.436;14.138;2022-12-18T00:59:05;-2.50;88.60
4223;DHT22;2125;51.436;14.138;2022-12-18T01:01:32;-2.50;88.60
4223;DHT22;2125;51.436;14.138;2022-12-18T01:04:00;-2.50;88.60
4223;DHT22;2125;51.436;14.138;2022-12-18T01:06:26;-2.50;88.70
4223;DHT22;2125;51.436;14.138;2022-12-18T01:08:54;-2.50;88.70
4223;DHT22;2125;51.436;14.138;2022-12-18T01:11:21;-2.60;88.60
4223;DHT22;2125;51.436;14.138;2022-12-18T01:13:48;-2.60;88.70
4223;DHT22;2125;51.436;14.138;2022-12-18T01:16:15;-2.70;88.60
4223;DHT22;2125;51.436;14.138;2022-12-18T01:18:43;-2.70;88.60
4223;DHT22;2125;51.436;14.138;2022-12-18T01:21:12;-2.60;88.60
4223;DHT22;2125;51.436;14.138;2022-12-18T01:23:40;-2.60;88.70
4223;DHT22;2125;51.436;14.138;2022-12-18T01:26:10;-2.60;88.70
4223;DHT22;2125;51.436;14.138;2022-12-18T01:28:37;-2.60;88.60
4223;DHT22;2125;51.436;14.138;2022-12-18T01:31:16;-2.60;88.60
4223;DHT22;2125;51.436;14.138;2022-12-18T01:33:44;-2.60;88.60
4223;DHT22;2125;51.436;14.138;2022-12-18T01:36:16;-2.60;88.60
4223;DHT22;2125;51.436;14.138;2022-12-18T01:38:42;-2.60;88.70
4223;DHT22;2125;51.436;14.138;2022-12-18T01:41:11;-2.50;88.70
4223;DHT22;2125;51.436;14.138;2022-12-18T01:43:43;-2.40;88.60
4223;DHT22;2125;51.436;14.138;2022-12-18T01:46:10;-2.40;88.60
4223;DHT22;2125;51.436;14.138;2022-12-18T01:48:37;-2.40;88.50
4223;DHT22;2125;51.436;14.138;2022-12-18T01:51:06;-2.50;88.70
4223;DHT22;2125;51.436;14.138;2022-12-18T01:53:33;-2.70;88.50
4223;DHT22;2125;51.436;14.138;2022-12-18T01:56:00;-2.70;88.60
4223;DHT22;2125;51.436;14.138;2022-12-18T01:58:41;-2.70;88.60
4223;DHT22;2125;51.436;14.138;2022-12-18T02:01:09;-2.60;88.70
4223;DHT22;2125;51.436;14.138;2022-12-18T02:03:36;-2.60;88.70
4223;DHT22;2125;51.436;14.138;2022-12-18T02:06:07;-2.60;88.60
4223;DHT22;2125;51.436;14.138;2022-12-18T02:08:41;-2.50;88.60
4223;DHT22;2125;51.436;14.138;2022-12-18T02:11:14;-2.50;88.60
4223;DHT22;2125;51.436;14.138;2022-12-18T02:13:49;-2.50;88.60
4223;DHT22;2125;51.436;14.138;2022-12-18T02:16:23;-2.40;88.60
4223;DHT22;2125;51.436;14.138;2022-12-18T02:18:55;-2.50;88.70
4223;DHT22;2125;51.436;14.138;2022-12-18T02:21:30;-2.40;88.50
4223;DHT22;2125;51.436;14.138;2022-12-18T02:24:11;-2.40;88.60
4223;DHT22;2125;51.436;14.138;2022-12-18T02:26:44;-2.30;88.60
4223;DHT22;2125;51.436;14.138;2022-12-18T02:29:13;-2.30;88.60
4223;DHT22;2125;51.436;14.138;2022-12-18T02:31:45;-2.40;88.60
4223;DHT22;2125;51.436;14.138;2022-12-18T02:34:12;-2.40;88.60
4223;DHT22;2125;51.436;14.138;2022-12-18T02:36:42;-2.40;88.60
4223;DHT22;2125;51.436;14.138;2022-12-18T02:39:11;-2.40;88.60
4223;DHT22;2125;51.436;14.138;2022-12-18T02:41:40;-2.40;88.60
4223;DHT22;2125;51.436;14.138;2022-12-18T02:44:09;-2.40;88.60
4223;DHT22;2125;51.436;14.138;2022-12-18T02:46:39;-2.40;88.60
4223;DHT22;2125;51.436;14.138;2022-12-18T02:49:35;-2.40;88.60
4223;DHT22;2125;51.436;14.138;2022-12-18T02:52:09;-2.50;88.60
4223;DHT22;2125;51.436;14.138;2022-12-18T02:54:50;-2.50;88.60
4223;DHT22;2125;51.436;14.138;2022-12-18T02:57:24;-2.50;88.60
4223;DHT22;2125;51.436;14.138;2022-12-18T02:59:59;-2.50;88.70
4223;DHT22;2125;51.436;14.138;2022-12-18T03:02:35;-2.70;88.60
4223;DHT22;2125;51.436;14.138;2022-12-18T03:05:08;-2.70;88.70
4223;DHT22;2125;51.436;14.138;2022-12-18T03:07:39;-2.60;88.70
4223;DHT22;2125;51.436;14.138;2022-12-18T03:10:09;-2.60;88.70
4223;DHT22;2125;51.436;14.138;2022-12-18T03:12:42;-2.60;88.60
4223;DHT22;2125;51.436;14.138;2022-12-18T03:15:16;-2.60;88.70
4223;DHT22;2125;51.436;14.138;2022-12-18T03:17:46;-2.60;88.70
4223;DHT22;2125;51.436;14.138;2022-12-18T03:20:19;-2.60;88.70
4223;DHT22;2125;51.436;14.138;2022-12-18T03:22:50;-2.70;88.60
4223;DHT22;2125;51.436;14.138;2022-12-18T03:25:18;-2.70;88.70
4223;DHT22;2125;51.436;14.138;2022-12-18T03:27:50;-2.70;88.70
4223;DHT22;2125;51.436;14.138;2022-12-18T03:30:17;-2.80;88.70
4223;DHT22;2125;51.436;14.138;2022-12-18T03:32:47;-2.70;88.70
4223;DHT22;2125;51.436;14.138;2022-12-18T03:35:22;-2.70;88.70
4223;DHT22;2125;51.436;14.138;2022-12-18T03:37:49;-2.70;88.70
4223;DHT22;2125;51.436;14.138;2022-12-18T03:40:16;-2.70;88.70
4223;DHT22;2125;51.436;14.138;2022-12-18T03:42:48;-2.60;88.70
4223;DHT22;2125;51.436;14.138;2022-12-18T03:45:21;-2.60;88.70
4223;DHT22;2125;51.436;14.138;2022-12-18T03:47:57;-2.60;88.70
4223;DHT22;2125;51.436;14.138;2022-12-18T03:50:29;-2.60;88.70
4223;DHT22;2125;51.436;14.138;2022-12-18T03:53:08;-2.60;88.70
4223;DHT22;2125;51.436;14.138;2022-12-18T03:55:37;-2.70;88.60
4223;DHT22;2125;51.436;14.138;2022-12-18T03:58:07;-2.80;88.60
4223;DHT22;2125;51.436;14.138;2022-12-18T04:00:35;-2.80;88.60
4223;DHT22;2125;51.436;14.138;2022-12-18T04:03:02;-2.80;88.70
4223;DHT22;2125;51.436;14.138;2022-12-18T04:05:30;-2.90;88.60
4223;DHT22;2125;51.436;14.138;2022-12-18T04:08:00;-2.90;88.60
4223;DHT22;2125;51.436;14.138;2022-12-18T04:10:27;-2.90;88.60
4223;DHT22;2125;51.436;14.138;2022-12-18T04:12:56;-2.80;88.70
4223;DHT22;2125;51.436;14.138;2022-12-18T04:15:24;-2.70;88.70
4223;DHT22;2125;51.436;14.138;2022-12-18T04:17:51;-2.60;88.70
4223;DHT22;2125;51.436;14.138;2022-12-18T04:20:18;-2.70;88.60
4223;DHT22;2125;51.436;14.138;2022-12-18T04:22:45;-2.70;88.60
4223;DHT22;2125;51.436;14.138;2022-12-18T04:25:11;-2.70;88.70
4223;DHT22;2125;51.436;14.138;2022-12-18T04:27:38;-2.70;88.60
4223;DHT22;2125;51.436;14.138;2022-12-18T04:30:06;-2.70;88.60
4223;DHT22;2125;51.436;14.138;2022-12-18T04:32:35;-2.60;88.70
4223;DHT22;2125;51.436;14.138;2022-12-18T04:35:01;-2.60;88.70
4223;DHT22;2125;51.436;14.138;2022-12-18T04:37:29;-2.70;88.70
4223;DHT22;2125;51.436;14.138;2022-12-18T04:39:56;-2.70;88.70
4223;DHT22;2125;51.436;14.138;2022-12-18T04:42:22;-2.70;88.70
4223;DHT22;2125;51.436;14.138;2022-12-18T04:44:49;-2.70;88.70
4223;DHT22;2125;51.436;14.138;2022-12-18T04:47:15;-2.80;88.50
4223;DHT22;2125;51.436;14.138;2022-12-18T04:49:43;-2.80;88.60
4223;DHT22;2125;51.436;14.138;2022-12-18T04:52:10;-2.80;88.60
4223;DHT22;2125;51.436;14.138;2022-12-18T04:54:36;-2.90;88.60
4223;DHT22;2125;51.436;14.138;2022-12-18T04:57:03;-2.90;88.60
4223;DHT22;2125;51.436;14.138;2022-12-18T04:59:30;-2.90;88.80
4223;DHT22;2125;51.436;14.138;2022-12-18T05:01:56;-3.10;88.60
4223;DHT22;2125;51.436;14.138;2022-12-18T05:04:23;-3.10;88.80
4223;DHT22;2125;51.436;14.138;2022-12-18T05:06:51;-3.10;88.70
4223;DHT22;2125;51.436;14.138;2022-12-18T05:09:17;-3.10;88.70
4223;DHT22;2125;51.436;14.138;2022-12-18T05:11:46;-3.10;88.70
4223;DHT22;2125;51.436;14.138;2022-12-18T05:14:12;-3.10;88.80
4223;DHT22;2125;51.436;14.138;2022-12-18T05:16:39;-3.10;88.80
4223;DHT22;2125;51.436;14.138;2022-12-18T05:19:06;-3.00;88.80
4223;DHT22;2125;51.436;14.138;2022-12-18T05:21:32;-3.00;88.80
4223;DHT22;2125;51.436;14.138;2022-12-18T05:24:00;-3.10;88.70
4223;DHT22;2125;51.436;14.138;2022-12-18T05:26:27;-3.10;88.80
4223;DHT22;2125;51.436;14.138;2022-12-18T05:28:53;-3.10;88.80
4223;DHT22;2125;51.436;14.138;2022-12-18T05:31:20;-3.20;88.80
4223;DHT22;2125;51.436;14.138;2022-12-18T05:33:50;-3.20;88.70
4223;DHT22;2125;51.436;14.138;2022-12-18T05:36:17;-3.20;88.70
4223;DHT22;2125;51.436;14.138;2022-12-18T05:38:43;-3.20;88.70
4223;DHT22;2125;51.436;14.138;2022-12-18T05:41:11;-3.20;88.70
4223;DHT22;2125;51.436;14.138;2022-12-18T05:43:38;-3.20;88.70
4223;DHT22;2125;51.436;14.138;2022-12-18T05:46:07;-3.20;88.80
4223;DHT22;2125;51.436;14.138;2022-12-18T05:48:34;-3.20;88.70
4223;DHT22;2125;51.436;14.138;2022-12-18T05:51:05;-3.20;88.80
4223;DHT22;2125;51.436;14.138;2022-12-18T05:53:34;-3.20;88.80
4223;DHT22;2125;51.436;14.138;2022-12-18T05:56:02;-3.20;88.80
4223;DHT22;2125;51.436;14.138;2022-12-18T05:58:33;-3.20;88.80
4223;DHT22;2125;51.436;14.138;2022-12-18T06:01:08;-3.20;88.70
4223;DHT22;2125;51.436;14.138;2022-12-18T06:03:36;-3.10;88.80
4223;DHT22;2125;51.436;14.138;2022-12-18T06:06:03;-3.10;88.80
4223;DHT22;2125;51.436;14.138;2022-12-18T06:08:30;-3.10;88.80
4223;DHT22;2125;51.436;14.138;2022-12-18T06:10:56;-3.20;88.70
4223;DHT22;2125;51.436;14.138;2022-12-18T06:13:23;-3.30;88.70
4223;DHT22;2125;51.436;14.138;2022-12-18T06:15:51;-3.30;88.70
4223;DHT22;2125;51.436;14.138;2022-12-18T06:18:17;-3.40;88.70
4223;DHT22;2125;51.436;14.138;2022-12-18T06:20:44;-3.30;88.70
4223;DHT22;2125;51.436;14.138;2022-12-18T06:23:11;-3.40;88.70
4223;DHT22;2125;51.436;14.138;2022-12-18T06:25:39;-3.40;88.70
4223;DHT22;2125;51.436;14.138;2022-12-18T06:28:06;-3.40;88.70
4223;DHT22;2125;51.436;14.138;2022-12-18T06:30:33;-3.30;88.70
4223;DHT22;2125;51.436;14.138;2022-12-18T06:33:01;-3.30;88.70
4223;DHT22;2125;51.436;14.138;2022-12-18T06:35:27;-3.40;88.70
4223;DHT22;2125;51.436;14.138;2022-12-18T06:37:54;-3.40;88.70
4223;DHT22;2125;51.436;14.138;2022-12-18T06:40:21;-3.40;88.70
4223;DHT22;2125;51.436;14.138;2022-12-18T06:42:47;-3.40;88.60
4223;DHT22;2125;51.436;14.138;2022-12-18T06:45:14;-3.40;88.60
4223;DHT22;2125;51.436;14.138;2022-12-18T06:47:41;-3.40;88.70
4223;DHT22;2125;51.436;14.138;2022-12-18T06:50:09;-3.40;88.60
4223;DHT22;2125;51.436;14.138;2022-12-18T06:52:35;-3.30;88.60
4223;DHT22;2125;51.436;14.138;2022-12-18T06:55:03;-3.40;88.60
4223;DHT22;2125;51.436;14.138;2022-12-18T06:57:29;-3.50;88.50
4223;DHT22;2125;51.436;14.138;2022-12-18T06:59:56;-3.50;88.50
4223;DHT22;2125;51.436;14.138;2022-12-18T07:02:23;-3.50;88.50
4223;DHT22;2125;51.436;14.138;2022-12-18T07:04:49;-3.40;88.50
4223;DHT22;2125;51.436;14.138;2022-12-18T07:07:17;-3.50;88.60
4223;DHT22;2125;51.436;14.138;2022-12-18T07:09:44;-3.50;88.50
4223;DHT22;2125;51.436;14.138;2022-12-18T07:12:10;-3.50;88.60
4223;DHT22;2125;51.436;14.138;2022-12-18T07:14:37;-3.50;88.60
4223;DHT22;2125;51.436;14.138;2022-12-18T07:17:04;-3.50;88.60
4223;DHT22;2125;51.436;14.138;2022-12-18T07:19:30;-3.50;88.50
4223;DHT22;2125;51.436;14.138;2022-12-18T07:21:57;-3.30;88.60
4223;DHT22;2125;51.436;14.138;2022-12-18T07:24:25;-3.40;88.60
4223;DHT22;2125;51.436;14.138;2022-12-18T07:26:51;-3.60;88.60
4223;DHT22;2125;51.436;14.138;2022-12-18T07:29:18;-3.70;88.50
4223;DHT22;2125;51.436;14.138;2022-12-18T07:31:45;-3.80;88.40
4223;DHT22;2125;51.436;14.138;2022-12-18T07:34:11;-3.90;88.30
4223;DHT22;2125;51.436;14.138;2022-12-18T07:36:41;-3.90;88.30
4223;DHT22;2125;51.436;14.138;2022-12-18T07:39:10;-3.90;88.40
4223;DHT22;2125;51.436;14.138;2022-12-18T07:41:38;-4.00;88.40
4223;DHT22;2125;51.436;14.138;2022-12-18T07:44:09;-4.00;88.40
4223;DHT22;2125;51.436;14.138;2022-12-18T07:46:38;-4.10;88.40
4223;DHT22;2125;51.436;14.138;2022-12-18T07:49:05;-4.00;88.50
4223;DHT22;2125;51.436;14.138;2022-12-18T07:51:32;-3.90;88.70
4223;DHT22;2125;51.436;14.138;2022-12-18T07:53:58;-3.90;88.60
4223;DHT22;2125;51.436;14.138;2022-12-18T07:56:25;-3.90;88.70
4223;DHT22;2125;51.436;14.138;2022-12-18T07:58:53;-3.90;88.70
4223;DHT22;2125;51.436;14.138;2022-12-18T08:01:20;-3.90;88.70
4223;DHT22;2125;51.436;14.138;2022-12-18T08:03:46;-3.90;88.60
4223;DHT22;2125;51.436;14.138;2022-12-18T08:06:13;-4.00;88.60
4223;DHT22;2125;51.436;14.138;2022-12-18T08:08:40;-3.90;88.60
4223;DHT22;2125;51.436;14.138;2022-12-18T08:11:07;-3.90;88.50
4223;DHT22;2125;51.436;14.138;2022-12-18T08:13:34;-3.90;88.60
4223;DHT22;2125;51.436;14.138;2022-12-18T08:16:04;-3.90;88.50
4223;DHT22;2125;51.436;14.138;2022-12-18T08:18:32;-3.90;88.50
4223;DHT22;2125;51.436;14.138;2022-12-18T08:21:09;-3.80;88.60
4223;DHT22;2125;51.436;14.138;2022-12-18T08:23:37;-3.90;88.60
4223;DHT22;2125;51.436;14.138;2022-12-18T08:26:05;-3.80;88.60
4223;DHT22;2125;51.436;14.138;2022-12-18T08:28:31;-3.80;88.60
4223;DHT22;2125;51.436;14.138;2022-12-18T08:31:00;-3.80;88.60
4223;DHT22;2125;51.436;14.138;2022-12-18T08:33:31;-3.80;88.50
4223;DHT22;2125;51.436;14.138;2022-12-18T08:35:58;-3.80;88.50
4223;DHT22;2125;51.436;14.138;2022-12-18T08:38:26;-3.80;88.60
4223;DHT22;2125;51.436;14.138;2022-12-18T08:40:58;-3.70;88.60
4223;DHT22;2125;51.436;14.138;2022-12-18T08:43:37;-3.70;88.50
4223;DHT22;2125;51.436;14.138;2022-12-18T08:46:31;-3.70;88.50
4223;DHT22;2125;51.436;14.138;2022-12-18T08:49:07;-3.60;88.40
4223;DHT22;2125;51.436;14.138;2022-12-18T08:51:39;-3.60;88.40
4223;DHT22;2125;51.436;14.138;2022-12-18T08:54:06;-3.60;88.20
4223;DHT22;2125;51.436;14.138;2022-12-18T08:56:33;-3.50;88.20
4223;DHT22;2125;51.436;14.138;2022-12-18T08:59:02;-3.50;88.20
4223;DHT22;2125;51.436;14.138;2022-12-18T09:01:29;-3.50;88.10
4223;DHT22;2125;51.436;14.138;2022-12-18T09:04:02;-3.60;88.00
4223;DHT22;2125;51.436;14.138;2022-12-18T09:06:30;-3.60;88.00
4223;DHT22;2125;51.436;14.138;2022-12-18T09:09:02;-3.60;88.00
4223;DHT22;2125;51.436;14.138;2022-12-18T09:11:41;-3.50;88.00
4223;DHT22;2125;51.436;14.138;2022-12-18T09:14:20;-3.50;87.90
4223;DHT22;2125;51.436;14.138;2022-12-18T09:16:49;-3.50;87.90
4223;DHT22;2125;51.436;14.138;2022-12-18T09:19:18;-3.50;87.80
4223;DHT22;2125;51.436;14.138;2022-12-18T09:21:55;-3.50;87.80
4223;DHT22;2125;51.436;14.138;2022-12-18T09:24:28;-3.40;87.90
4223;DHT22;2125;51.436;14.138;2022-12-18T09:26:54;-3.40;87.90
4223;DHT22;2125;51.436;14.138;2022-12-18T09:29:27;-3.30;87.90
4223;DHT22;2125;51.436;14.138;2022-12-18T09:31:55;-3.40;87.80
4223;DHT22;2125;51.436;14.138;2022-12-18T09:34:22;-3.30;87.80
4223;DHT22;2125;51.436;14.138;2022-12-18T09:36:50;-3.10;87.80
4223;DHT22;2125;51.436;14.138;2022-12-18T09:39:17;-3.00;87.70
4223;DHT22;2125;51.436;14.138;2022-12-18T09:41:46;-3.00;87.60
4223;DHT22;2125;51.436;14.138;2022-12-18T09:44:23;-2.90;87.60
4223;DHT22;2125;51.436;14.138;2022-12-18T09:46:55;-2.80;87.40
4223;DHT22;2125;51.436;14.138;2022-12-18T09:49:27;-2.80;87.20
4223;DHT22;2125;51.436;14.138;2022-12-18T09:52:02;-2.80;87.00
4223;DHT22;2125;51.436;14.138;2022-12-18T09:54:33;-2.70;87.00
4223;DHT22;2125;51.436;14.138;2022-12-18T09:57:03;-2.70;86.90
4223;DHT22;2125;51.436;14.138;2022-12-18T09:59:34;-2.70;86.90
4223;DHT22;2125;51.436;14.138;2022-12-18T10:02:13;-2.60;86.70
4223;DHT22;2125;51.436;14.138;2022-12-18T10:04:40;-2.50;86.50
4223;DHT22;2125;51.436;14.138;2022-12-18T10:07:11;-2.50;86.40
4223;DHT22;2125;51.436;14.138;2022-12-18T10:09:45;-2.50;86.10
4223;DHT22;2125;51.436;14.138;2022-12-18T10:12:19;-2.50;86.00
4223;DHT22;2125;51.436;14.138;2022-12-18T10:15:06;-2.60;85.90
4223;DHT22;2125;51.436;14.138;2022-12-18T10:17:44;-2.60;86.10
4223;DHT22;2125;51.436;14.138;2022-12-18T10:23:40;-2.70;86.20
4223;DHT22;2125;51.436;14.138;2022-12-18T10:27:12;-2.70;86.40
4223;DHT22;2125;51.436;14.138;2022-12-18T10:29:30;-2.70;86.60
4223;DHT22;2125;51.436;14.138;2022-12-18T10:31:57;-2.70;86.70
4223;DHT22;2125;51.436;14.138;2022-12-18T10:34:23;-2.70;86.90
4223;DHT22;2125;51.436;14.138;2022-12-18T10:36:50;-2.70;86.80
4223;DHT22;2125;51.436;14.138;2022-12-18T10:39:22;-2.60;86.90
4223;DHT22;2125;51.436;14.138;2022-12-18T10:41:53;-2.60;86.80
4223;DHT22;2125;51.436;14.138;2022-12-18T10:48:01;-2.60;86.60
4223;DHT22;2125;51.436;14.138;2022-12-18T10:50:52;-2.60;86.50
4223;DHT22;2125;51.436;14.138;2022-12-18T10:56:44;-2.80;86.60
4223;DHT22;2125;51.436;14.138;2022-12-18T10:59:59;-2.80;86.70
4223;DHT22;2125;51.436;14.138;2022-12-18T11:06:18;-2.70;86.60
4223;DHT22;2125;51.436;14.138;2022-12-18T11:09:00;-2.60;86.60
4223;DHT22;2125;51.436;14.138;2022-12-18T11:11:28;-2.60;86.60
4223;DHT22;2125;51.436;14.138;2022-12-18T11:14:00;-2.60;86.60
4223;DHT22;2125;51.436;14.138;2022-12-18T11:16:34;-2.60;86.50
4223;DHT22;2125;51.436;14.138;2022-12-18T11:19:19;-2.60;86.60
4223;DHT22;2125;51.436;14.138;2022-12-18T11:21:48;-2.50;86.60
4223;DHT22;2125;51.436;14.138;2022-12-18T11:24:20;-2.60;86.50
4223;DHT22;2125;51.436;14.138;2022-12-18T11:26:49;-2.60;86.40
4223;DHT22;2125;51.436;14.138;2022-12-18T11:29:19;-2.60;86.30
4223;DHT22;2125;51.436;14.138;2022-12-18T11:31:51;-2.60;86.40
4223;DHT22;2125;51.436;14.138;2022-12-18T11:34:37;-2.50;86.40
4223;DHT22;2125;51.436;14.138;2022-12-18T11:37:04;-2.50;86.10
4223;DHT22;2125;51.436;14.138;2022-12-18T11:39:35;-2.50;86.10
4223;DHT22;2125;51.436;14.138;2022-12-18T11:42:09;-2.50;86.10
4223;DHT22;2125;51.436;14.138;2022-12-18T11:44:43;-2.50;86.10
4223;DHT22;2125;51.436;14.138;2022-12-18T11:47:21;-2.50;86.00
4223;DHT22;2125;51.436;14.138;2022-12-18T11:49:51;-2.40;86.00
4223;DHT22;2125;51.436;14.138;2022-12-18T11:52:28;-2.40;85.80
4223;DHT22;2125;51.436;14.138;2022-12-18T11:55:00;-2.40;85.70
4223;DHT22;2125;51.436;14.138;2022-12-18T11:57:38;-2.40;85.70
4223;DHT22;2125;51.436;14.138;2022-12-18T12:00:15;-2.40;85.60
4223;DHT22;2125;51.436;14.138;2022-12-18T12:05:57;-2.30;85.60
4223;DHT22;2125;51.436;14.138;2022-12-18T12:08:35;-2.30;85.60
4223;DHT22;2125;51.436;14.138;2022-12-18T12:11:09;-2.30;85.50
4223;DHT22;2125;51.436;14.138;2022-12-18T12:13:46;-2.30;85.30
4223;DHT22;2125;51.436;14.138;2022-12-18T12:19:47;-2.20;85.40
4223;DHT22;2125;51.436;14.138;2022-12-18T12:22:24;-2.30;85.10
4223;DHT22;2125;51.436;14.138;2022-12-18T12:25:02;-2.20;85.30
4223;DHT22;2125;51.436;14.138;2022-12-18T12:27:40;-2.20;85.30
4223;DHT22;2125;51.436;14.138;2022-12-18T12:30:15;-2.20;85.20
4223;DHT22;2125;51.436;14.138;2022-12-18T12:32:52;-2.30;85.20
4223;DHT22;2125;51.436;14.138;2022-12-18T12:35:32;-2.20;85.30
4223;DHT22;2125;51.436;14.138;2022-12-18T12:38:09;-2.20;85.10
4223;DHT22;2125;51.436;14.138;2022-12-18T12:40:39;-2.20;85.10
4223;DHT22;2125;51.436;14.138;2022-12-18T12:43:16;-2.20;85.00
4223;DHT22;2125;51.436;14.138;2022-12-18T12:45:49;-2.20;85.00
4223;DHT22;2125;51.436;14.138;2022-12-18T12:48:23;-2.10;85.10
4223;DHT22;2125;51.436;14.138;2022-12-18T12:50:55;-2.20;84.90
4223;DHT22;2125;51.436;14.138;2022-12-18T12:53:27;-2.20;85.00
4223;DHT22;2125;51.436;14.138;2022-12-18T12:55:55;-2.10;85.10
4223;DHT22;2125;51.436;14.138;2022-12-18T12:58:29;-2.20;84.90
4223;DHT22;2125;51.436;14.138;2022-12-18T13:03:35;-2.20;85.00
4223;DHT22;2125;51.436;14.138;2022-12-18T13:06:09;-2.10;85.00
4223;DHT22;2125;51.436;14.138;2022-12-18T13:12:13;-2.20;84.80
4223;DHT22;2125;51.436;14.138;2022-12-18T13:15:12;-2.20;84.90
4223;DHT22;2125;51.436;14.138;2022-12-18T13:18:04;-2.10;84.90
4223;DHT22;2125;51.436;14.138;2022-12-18T13:20:35;-2.10;84.80
4223;DHT22;2125;51.436;14.138;2022-12-18T13:23:29;-2.10;84.60
4223;DHT22;2125;51.436;14.138;2022-12-18T13:25:57;-2.20;84.30
4223;DHT22;2125;51.436;14.138;2022-12-18T13:28:54;-2.20;84.20
4223;DHT22;2125;51.436;14.138;2022-12-18T13:32:21;-2.30;84.40
4223;DHT22;2125;51.436;14.138;2022-12-18T13:34:48;-2.40;84.60
4223;DHT22;2125;51.436;14.138;2022-12-18T13:37:41;-2.40;84.70
4223;DHT22;2125;51.436;14.138;2022-12-18T13:43:34;-2.50;84.90
4223;DHT22;2125;51.436;14.138;2022-12-18T13:46:16;-2.60;84.90
4223;DHT22;2125;51.436;14.138;2022-12-18T13:49:19;-2.50;85.00
4223;DHT22;2125;51.436;14.138;2022-12-18T13:52:17;-2.60;84.90
4223;DHT22;2125;51.436;14.138;2022-12-18T13:55:21;-2.70;85.20
4223;DHT22;2125;51.436;14.138;2022-12-18T13:58:06;-2.70;85.10
4223;DHT22;2125;51.436;14.138;2022-12-18T14:00:34;-2.80;85.00
4223;DHT22;2125;51.436;14.138;2022-12-18T14:03:02;-2.80;85.20
4223;DHT22;2125;51.436;14.138;2022-12-18T14:05:37;-2.70;85.50
4223;DHT22;2125;51.436;14.138;2022-12-18T14:08:11;-2.70;85.30
4223;DHT22;2125;51.436;14.138;2022-12-18T14:10:40;-2.70;85.20
4223;DHT22;2125;51.436;14.138;2022-12-18T14:13:20;-2.80;85.00
4223;DHT22;2125;51.436;14.138;2022-12-18T14:15:54;-2.90;85.10
4223;DHT22;2125;51.436;14.138;2022-12-18T14:18:27;-2.90;85.20
4223;DHT22;2125;51.436;14.138;2022-12-18T14:20:58;-3.00;85.20
4223;DHT22;2125;51.436;14.138;2022-12-18T14:23:35;-3.10;85.30
4223;DHT22;2125;51.436;14.138;2022-12-18T14:26:37;-3.10;85.40
4223;DHT22;2125;51.436;14.138;2022-12-18T14:29:21;-3.10;85.40
4223;DHT22;2125;51.436;14.138;2022-12-18T14:32:05;-3.30;85.50
4223;DHT22;2125;51.436;14.138;2022-12-18T14:34:32;-3.40;85.70
4223;DHT22;2125;51.436;14.138;2022-12-18T14:36:59;-3.40;85.80
4223;DHT22;2125;51.436;14.138;2022-12-18T14:39:25;-3.50;85.80
4223;DHT22;2125;51.436;14.138;2022-12-18T14:41:52;-3.50;86.00
4223;DHT22;2125;51.436;14.138;2022-12-18T14:44:19;-3.70;86.00
4223;DHT22;2125;51.436;14.138;2022-12-18T14:46:47;-3.60;86.30
4223;DHT22;2125;51.436;14.138;2022-12-18T14:49:21;-3.60;86.50
4223;DHT22;2125;51.436;14.138;2022-12-18T14:51:51;-3.70;86.50
4223;DHT22;2125;51.436;14.138;2022-12-18T14:54:19;-3.70;86.60
4223;DHT22;2125;51.436;14.138;2022-12-18T14:56:48;-3.70;86.80
4223;DHT22;2125;51.436;14.138;2022-12-18T14:59:17;-3.70;86.80
4223;DHT22;2125;51.436;14.138;2022-12-18T15:01:47;-3.80;86.80
4223;DHT22;2125;51.436;14.138;2022-12-18T15:04:26;-3.80;86.90
4223;DHT22;2125;51.436;14.138;2022-12-18T15:07:05;-3.90;86.80
4223;DHT22;2125;51.436;14.138;2022-12-18T15:09:34;-4.00;86.80
4223;DHT22;2125;51.436;14.138;2022-12-18T15:12:02;-4.00;87.10
4223;DHT22;2125;51.436;14.138;2022-12-18T15:14:34;-4.10;87.20
4223;DHT22;2125;51.436;14.138;2022-12-18T15:17:03;-4.00;87.30
4223;DHT22;2125;51.436;14.138;2022-12-18T15:19:39;-4.10;87.20
4223;DHT22;2125;51.436;14.138;2022-12-18T15:22:18;-4.20;87.20
4223;DHT22;2125;51.436;14.138;2022-12-18T15:24:47;-4.20;87.30
4223;DHT22;2125;51.436;14.138;2022-12-18T15:27:22;-4.20;87.30
4223;DHT22;2125;51.436;14.138;2022-12-18T15:30:01;-4.30;87.50
4223;DHT22;2125;51.436;14.138;2022-12-18T15:32:27;-4.40;87.60
4223;DHT22;2125;51.436;14.138;2022-12-18T15:35:07;-4.40;87.70
4223;DHT22;2125;51.436;14.138;2022-12-18T15:37:37;-4.50;87.60
4223;DHT22;2125;51.436;14.138;2022-12-18T15:40:05;-4.50;87.70
4223;DHT22;2125;51.436;14.138;2022-12-18T15:42:32;-4.50;87.60
4223;DHT22;2125;51.436;14.138;2022-12-18T15:45:17;-4.60;87.60
4223;DHT22;2125;51.436;14.138;2022-12-18T15:47:45;-4.60;87.70
4223;DHT22;2125;51.436;14.138;2022-12-18T15:50:13;-4.70;87.70
4223;DHT22;2125;51.436;14.138;2022-12-18T15:52:43;-4.80;87.70
4223;DHT22;2125;51.436;14.138;2022-12-18T15:55:11;-4.90;87.90
4223;DHT22;2125;51.436;14.138;2022-12-18T15:57:56;-5.00;87.90
4223;DHT22;2125;51.436;14.138;2022-12-18T16:00:22;-5.00;87.90
4223;DHT22;2125;51.436;14.138;2022-12-18T16:02:49;-5.00;88.00
4223;DHT22;2125;51.436;14.138;2022-12-18T16:05:18;-5.10;88.10
4223;DHT22;2125;51.436;14.138;2022-12-18T16:07:49;-5.10;88.10
4223;DHT22;2125;51.436;14.138;2022-12-18T16:10:16;-5.10;88.10
4223;DHT22;2125;51.436;14.138;2022-12-18T16:12:43;-5.20;88.10
4223;DHT22;2125;51.436;14.138;2022-12-18T16:15:12;-5.30;88.30
4223;DHT22;2125;51.436;14.138;2022-12-18T16:17:41;-5.20;88.40
4223;DHT22;2125;51.436;14.138;2022-12-18T16:20:12;-5.20;88.40
4223;DHT22;2125;51.436;14.138;2022-12-18T16:22:42;-5.20;88.50
4223;DHT22;2125;51.436;14.138;2022-12-18T16:25:16;-5.20;88.50
4223;DHT22;2125;51.436;14.138;2022-12-18T16:27:51;-5.20;88.40
4223;DHT22;2125;51.436;14.138;2022-12-18T16:30:21;-5.30;88.40
4223;DHT22;2125;51.436;14.138;2022-12-18T16:32:49;-5.30;88.50
4223;DHT22;2125;51.436;14.138;2022-12-18T16:35:17;-5.20;88.60
4223;DHT22;2125;51.436;14.138;2022-12-18T16:37:45;-5.20;88.60
4223;DHT22;2125;51.436;14.138;2022-12-18T16:40:14;-5.30;88.60
4223;DHT22;2125;51.436;14.138;2022-12-18T16:42:43;-5.20;88.60